createdAt,value
2022-12-18T00:03:38.067Z,19.59
2022-12-18T00:08:32.800Z,19.70
2022-12-18T00:13:26.319Z,19.67
2022-12-18T00:18:21.862Z,19.48
2022-12-18T00:23:15.266Z,19.69
2022-12-18T00:28:08.788Z,19.64
2022-12-18T00:33:02.638Z,19.59
2022-12-18T00:37:56.341Z,19.60
2022-12-18T00:42:58.707Z,19.60
2022-12-18T00:47:51.325Z,19.73
2022-12-18T00:52:45.057Z,19.61
2022-12-18T00:57:38.072Z,19.57
2022-12-18T01:02:32.117Z,19.53
2022-12-18T01:07:24.933Z,19.58
2022-12-18T01:12:18.205Z,19.64
2022-12-18T01:17:11.154Z,19.56
2022-12-18T01:22:04.733Z,19.62
2022-12-18T01:26:58.649Z,19.70
2022-12-18T01:31:51.166Z,19.59
2022-12-18T01:36:45.759Z,19.66
2022-12-18T01:41:58.566Z,19.67
2022-12-18T01:46:52.743Z,19.63
2022-12-18T01:51:46.667Z,19.62
2022-12-18T01:56:40.040Z,19.60
2022-12-18T02:01:34.478Z,19.51
2022-12-18T02:06:39.526Z,19.60
2022-12-18T02:11:48.214Z,19.63
2022-12-18T02:16:57.905Z,19.60
2022-12-18T02:21:58.883Z,19.62
2022-12-18T02:26:55.366Z,19.52
2022-12-18T02:31:56.643Z,19.63
2022-12-18T02:36:53.383Z,19.51
2022-12-18T02:41:47.056Z,19.57
2022-12-18T02:46:48.234Z,19.49
2022-12-18T02:52:02.558Z,19.61
2022-12-18T02:57:05.610Z,19.59
2022-12-18T03:02:26.318Z,19.52
2022-12-18T03:07:27.159Z,19.62
2022-12-18T03:12:41.435Z,19.49
2022-12-18T03:17:36.804Z,19.40
2022-12-18T03:22:33.426Z,19.50
2022-12-18T03:27:34.727Z,19.60
2022-12-18T03:32:34.819Z,19.62
2022-12-18T03:38:07.929Z,19.60
2022-12-18T03:43:40.755Z,19.58
2022-12-18T03:48:43.320Z,19.44
2022-12-18T03:53:45.030Z,19.63
2022-12-18T03:58:59.497Z,19.62
2022-12-18T04:03:56.462Z,19.58
2022-12-18T04:08:50.662Z,19.54
2022-12-18T04:13:47.814Z,19.54
2022-12-18T04:18:46.442Z,19.60
2022-12-18T04:23:41.716Z,19.59
2022-12-18T04:28:35.892Z,19.57
2022-12-18T04:33:30.041Z,19.64
2022-12-18T04:38:24.443Z,19.63
2022-12-18T04:43:25.348Z,19.64
2022-12-18T04:48:19.189Z,19.65
2022-12-18T04:53:12.498Z,19.61
2022-12-18T04:58:05.791Z,19.63
2022-12-18T05:02:59.794Z,19.63
2022-12-18T05:07:53.472Z,19.52
2022-12-18T05:13:01.606Z,19.61
2022-12-18T05:17:56.039Z,19.54
2022-12-18T05:22:50.103Z,19.52
2022-12-18T05:27:43.204Z,19.56
2022-12-18T05:32:35.928Z,19.61
2022-12-18T05:37:29.980Z,19.61
2022-12-18T05:42:22.706Z,19.51
2022-12-18T05:47:15.526Z,19.60
2022-12-18T05:52:08.190Z,19.54
2022-12-18T05:57:01.703Z,19.61
2022-12-18T06:01:54.760Z,19.46
2022-12-18T06:06:49.126Z,19.54
2022-12-18T06:11:42.567Z,19.59
2022-12-18T06:16:35.341Z,19.58
2022-12-18T06:21:29.355Z,19.67
2022-12-18T06:26:27.841Z,19.70
2022-12-18T06:31:22.101Z,19.59
2022-12-18T06:36:17.223Z,19.51
2022-12-18T06:41:15.373Z,19.64
2022-12-18T06:46:08.482Z,19.60
2022-12-18T06:51:02.046Z,19.70
2022-12-18T06:55:54.165Z,19.68
2022-12-18T07:00:49.440Z,19.74
2022-12-18T07:05:42.453Z,19.67
2022-12-18T07:10:46.289Z,19.55
2022-12-18T07:15:41.853Z,19.37
2022-12-18T07:20:36.338Z,19.14
2022-12-18T07:25:29.906Z,19.24
2022-12-18T07:30:24.050Z,19.36
2022-12-18T07:35:23.357Z,19.44
2022-12-18T07:40:18.150Z,19.22
2022-12-18T07:45:12.098Z,19.47
2022-12-18T07:50:05.799Z,19.38
2022-12-18T07:55:00.173Z,19.47
2022-12-18T07:59:52.904Z,19.51
2022-12-18T08:04:48.481Z,19.48
2022-12-18T08:09:43.055Z,19.57
2022-12-18T08:14:36.282Z,19.60
2022-12-18T08:19:29.822Z,19.63
2022-12-18T08:24:23.446Z,19.64
2022-12-18T08:29:21.445Z,19.70
2022-12-18T08:34:15.046Z,19.72
2022-12-18T08:39:09.316Z,19.73
2022-12-18T08:44:22.027Z,19.74
2022-12-18T08:49:15.723Z,19.67
2022-12-18T08:54:08.733Z,19.66
2022-12-18T08:59:01.831Z,19.57
2022-12-18T09:03:54.628Z,19.80
2022-12-18T09:08:47.050Z,19.73
2022-12-18T09:13:41.911Z,19.77
2022-12-18T09:18:37.222Z,19.82
2022-12-18T09:23:30.625Z,19.82
2022-12-18T09:28:24.242Z,19.74
2022-12-18T09:33:18.539Z,19.86
2022-12-18T09:38:14.401Z,19.73
2022-12-18T09:43:11.848Z,19.75
2022-12-18T09:48:06.746Z,19.83
2022-12-18T09:53:07.657Z,19.85
2022-12-18T09:58:16.124Z,19.81
2022-12-18T10:03:14.792Z,19.77
2022-12-18T10:08:33.377Z,19.80
2022-12-18T10:13:31.297Z,19.90
2022-12-18T10:18:53.519Z,19.92
2022-12-18T10:24:30.241Z,19.90
2022-12-18T10:29:23.896Z,19.91
2022-12-18T10:34:16.614Z,19.85
2022-12-18T10:39:35.869Z,19.94
2022-12-18T10:44:29.547Z,19.97
2022-12-18T10:49:28.910Z,19.91
2022-12-18T10:54:27.098Z,20.02
2022-12-18T10:59:20.534Z,20.00
2022-12-18T11:04:19.702Z,19.95
2022-12-18T11:09:24.677Z,19.86
2022-12-18T11:14:46.924Z,19.95
2022-12-18T11:19:42.653Z,20.11
2022-12-18T11:24:37.317Z,19.99
2022-12-18T11:29:33.257Z,20.09
2022-12-18T11:34:33.319Z,20.02
2022-12-18T11:40:05.091Z,20.12
2022-12-18T11:45:12.999Z,20.10
2022-12-18T11:50:34.172Z,19.97
2022-12-18T11:55:51.909Z,20.11
2022-12-18T12:00:52.659Z,20.14
2022-12-18T12:06:09.511Z,20.16
2022-12-18T12:11:04.922Z,20.19
2022-12-18T12:16:13.762Z,20.24
2022-12-18T12:21:24.288Z,20.08
2022-12-18T12:26:29.862Z,20.21
2022-12-18T12:31:40.321Z,20.16
2022-12-18T12:37:04.042Z,20.05
2022-12-18T12:42:15.823Z,20.16
2022-12-18T12:47:31.743Z,20.06
2022-12-18T12:53:03.842Z,19.99
2022-12-18T12:58:16.546Z,19.97
2022-12-18T13:03:17.146Z,19.91
2022-12-18T13:08:33.246Z,19.99
2022-12-18T13:13:52.311Z,19.97
2022-12-18T13:18:51.972Z,19.98
2022-12-18T13:23:46.259Z,19.85
2022-12-18T13:28:49.120Z,20.03
2022-12-18T13:34:24.016Z,19.96
2022-12-18T13:39:21.223Z,20.11
2022-12-18T13:44:50.325Z,20.08
2022-12-18T13:49:45.681Z,19.90
2022-12-18T13:54:42.122Z,20.04
2022-12-18T13:59:40.391Z,19.88
2022-12-18T14:04:37.994Z,19.92
2022-12-18T14:09:32.564Z,20.08
2022-12-18T14:14:32.378Z,20.07
2022-12-18T14:19:27.031Z,20.09
2022-12-18T14:24:23.463Z,20.06
2022-12-18T14:29:28.109Z,19.91
2022-12-18T14:34:27.726Z,19.88
2022-12-18T14:39:20.329Z,19.92
2022-12-18T14:44:15.326Z,19.99
2022-12-18T14:49:28.394Z,20.03
2022-12-18T14:54:22.169Z,20.04
2022-12-18T14:59:24.093Z,20.06
2022-12-18T15:04:36.521Z,20.02
2022-12-18T15:09:30.106Z,19.94
2022-12-18T15:14:38.560Z,19.95
2022-12-18T15:19:39.631Z,19.97
2022-12-18T15:24:34.374Z,20.06
2022-12-18T15:29:28.084Z,19.86
2022-12-18T15:34:24.360Z,20.04
2022-12-18T15:39:17.845Z,20.19
2022-12-18T15:44:37.651Z,20.21
2022-12-18T15:49:31.202Z,20.16
2022-12-18T15:54:44.361Z,20.22
2022-12-18T15:59:37.709Z,20.27
2022-12-18T16:04:31.625Z,20.37
2022-12-18T16:09:26.652Z,20.43
2022-12-18T16:14:23.431Z,20.46
2022-12-18T16:19:17.256Z,20.36
2022-12-18T16:24:21.013Z,20.38
2022-12-18T16:29:14.929Z,20.26
2022-12-18T16:34:35.223Z,20.45
2022-12-18T16:39:28.825Z,20.48
2022-12-18T16:44:22.054Z,20.39
2022-12-18T16:49:20.674Z,20.50
2022-12-18T16:54:18.867Z,20.40
2022-12-18T16:59:13.428Z,20.51
2022-12-18T17:04:07.227Z,20.44
2022-12-18T17:09:03.464Z,20.56
2022-12-18T17:13:55.983Z,20.51
2022-12-18T17:18:51.090Z,20.33
2022-12-18T17:23:46.148Z,20.60
2022-12-18T17:28:40.146Z,20.38
2022-12-18T17:33:33.383Z,20.36
2022-12-18T17:38:26.581Z,20.31
2022-12-18T17:43:20.907Z,20.36
2022-12-18T17:48:16.806Z,20.33
2022-12-18T17:53:11.078Z,20.24
2022-12-18T17:58:05.518Z,19.76
2022-12-18T18:02:59.430Z,19.80
2022-12-18T18:07:52.650Z,19.65
2022-12-18T18:13:04.567Z,19.58
2022-12-18T18:17:58.374Z,19.53
2022-12-18T18:22:51.972Z,19.44
2022-12-18T18:27:46.117Z,19.35
2022-12-18T18:32:42.260Z,19.60
2022-12-18T18:37:36.716Z,19.77
2022-12-18T18:42:29.691Z,19.71
2022-12-18T18:47:22.326Z,19.76
2022-12-18T18:52:14.791Z,19.67
2022-12-18T18:57:20.445Z,19.83
2022-12-18T19:02:15.496Z,19.94
2022-12-18T19:07:09.577Z,19.92
2022-12-18T19:12:21.283Z,19.79
2022-12-18T19:17:15.762Z,19.75
2022-12-18T19:22:11.122Z,19.75
2022-12-18T19:27:04.449Z,19.88
2022-12-18T19:31:57.646Z,19.97
2022-12-18T19:36:56.482Z,19.91
2022-12-18T19:41:52.572Z,20.05
2022-12-18T19:46:47.072Z,20.06
2022-12-18T19:51:45.588Z,20.09
2022-12-18T19:56:38.239Z,20.01
2022-12-18T20:01:31.436Z,20.13
2022-12-18T20:06:36.547Z,20.16
2022-12-18T20:11:30.730Z,20.20
2022-12-18T20:16:23.748Z,20.19
2022-12-18T20:21:17.205Z,20.20
2022-12-18T20:26:10.601Z,20.09
2022-12-18T20:31:13.225Z,20.20
2022-12-18T20:36:15.289Z,20.14
2022-12-18T20:41:12.081Z,20.15
2022-12-18T20:46:08.087Z,20.20
2022-12-18T20:51:02.619Z,20.29
2022-12-18T20:55:58.024Z,20.31
2022-12-18T21:00:51.297Z,20.30
2022-12-18T21:05:44.814Z,20.28
2022-12-18T21:10:39.206Z,20.36
2022-12-18T21:15:33.139Z,20.39
2022-12-18T21:20:26.569Z,20.38
2022-12-18T21:25:19.534Z,20.40
2022-12-18T21:30:15.351Z,20.37
2022-12-18T21:35:09.694Z,20.28
2022-12-18T21:40:02.643Z,20.42
2022-12-18T21:44:56.775Z,20.19
2022-12-18T21:49:50.866Z,20.11
2022-12-18T21:54:44.829Z,20.20
2022-12-18T21:59:40.223Z,20.17
2022-12-18T22:04:33.987Z,20.23
2022-12-18T22:09:27.637Z,20.20
2022-12-18T22:14:21.745Z,20.22
2022-12-18T22:19:15.814Z,20.18
2022-12-18T22:24:13.801Z,20.18
2022-12-18T22:29:27.088Z,20.18
2022-12-18T22:34:23.251Z,20.15
2022-12-18T22:39:19.216Z,20.14
2022-12-18T22:44:13.188Z,20.14
2022-12-18T22:49:13.709Z,20.05
2022-12-18T22:54:06.829Z,19.99
2022-12-18T22:59:01.319Z,19.99
2022-12-18T23:03:54.719Z,20.09
2022-12-18T23:08:52.975Z,19.98
2022-12-18T23:13:49.311Z,19.97
2022-12-18T23:18:42.543Z,19.97
2022-12-18T23:23:37.196Z,20.06
2022-12-18T23:28:31.981Z,20.06
2022-12-18T23:33:25.648Z,20.05
2022-12-18T23:38:19.942Z,20.05
2022-12-18T23:43:13.103Z,20.02
2022-12-18T23:48:06.502Z,20.04
2022-12-18T23:53:04.848Z,20.03
2022-12-18T23:57:59.717Z,20.04
